NV24 weather

Emerus Heliport
North Las Vegas, Nevada, United States

Public forecast

Using degrees Fahrenheit for public forecast. Weather courtesy of forecast.io.

Closest aviation weather report (METAR) to Emerus Heliport

Closest report is North Las Vegas Airport, 2.3 nm (4.3 km) SW. Retrieved 2020/02/23 10:53 UTC (10 minutes ago):

KVGT 231053Z AUTO 29009KT 10SM FEW070 OVC095 10/05 A3000 RMK AO2 RAE16 SLP174 P0000 T01000050

Closest aviation forecast (TAF) to Emerus Heliport

Closest forecast is North Las Vegas Airport, 2.3 nm (4.3 km) SW. Retrieved 2020/02/23 06:22 UTC (5 hours ago):

TAF KVGT 230520Z 2306/2406 30006KT P6SM SCT050 BKN100 TEMPO 2306/2310 -SHRA BKN050 FM231500 34010KT P6SM FEW100 SCT250